sensor_id;sensor_type;location;lat;lon;timestamp;temperature;humidity
16801;DHT22;8518;53.236;10.384;2023-09-19T00:02:12;16.40;99.90
16801;DHT22;8518;53.236;10.384;2023-09-19T00:04:38;16.40;99.90
16801;DHT22;8518;53.236;10.384;2023-09-19T00:10:28;16.30;99.90
16801;DHT22;8518;53.236;10.384;2023-09-19T00:12:57;16.30;99.90
16801;DHT22;8518;53.236;10.384;2023-09-19T00:15:23;16.80;99.90
16801;DHT22;8518;53.236;10.384;2023-09-19T00:21:10;16.20;99.90
16801;DHT22;8518;53.236;10.384;2023-09-19T00:23:37;16.20;99.90
16801;DHT22;8518;53.236;10.384;2023-09-19T00:26:05;16.20;99.90
16801;DHT22;8518;53.236;10.384;2023-09-19T00:28:38;16.20;99.90
16801;DHT22;8518;53.236;10.384;2023-09-19T00:31:03;16.10;99.90
16801;DHT22;8518;53.236;10.384;2023-09-19T00:33:30;16.10;99.90
16801;DHT22;8518;53.236;10.384;2023-09-19T00:35:56;16.00;99.90
16801;DHT22;8518;53.236;10.384;2023-09-19T00:38:27;16.50;99.90
16801;DHT22;8518;53.236;10.384;2023-09-19T00:40:56;16.00;99.90
16801;DHT22;8518;53.236;10.384;2023-09-19T00:43:22;16.00;99.90
16801;DHT22;8518;53.236;10.384;2023-09-19T00:45:54;16.60;99.90
16801;DHT22;8518;53.236;10.384;2023-09-19T00:48:22;16.10;99.90
16801;DHT22;8518;53.236;10.384;2023-09-19T00:50:48;16.20;99.90
16801;DHT22;8518;53.236;10.384;2023-09-19T00:53:21;16.10;99.90
16801;DHT22;8518;53.236;10.384;2023-09-19T00:55:54;16.90;99.90
16801;DHT22;8518;53.236;10.384;2023-09-19T00:58:21;15.30;99.90
16801;DHT22;8518;53.236;10.384;2023-09-19T01:00:51;16.10;99.90
16801;DHT22;8518;53.236;10.384;2023-09-19T01:03:20;16.10;99.90
16801;DHT22;8518;53.236;10.384;2023-09-19T01:05:50;16.10;99.90
16801;DHT22;8518;53.236;10.384;2023-09-19T01:08:15;17.40;99.90
16801;DHT22;8518;53.236;10.384;2023-09-19T01:11:01;16.10;99.90
16801;DHT22;8518;53.236;10.384;2023-09-19T01:28:52;16.20;99.90
16801;DHT22;8518;53.236;10.384;2023-09-19T01:31:31;16.00;99.90
16801;DHT22;8518;53.236;10.384;2023-09-19T01:34:02;16.20;99.90
16801;DHT22;8518;53.236;10.384;2023-09-19T01:40:07;16.20;99.90
16801;DHT22;8518;53.236;10.384;2023-09-19T01:43:20;16.20;99.90
16801;DHT22;8518;53.236;10.384;2023-09-19T01:46:12;16.20;99.90
16801;DHT22;8518;53.236;10.384;2023-09-19T01:48:43;16.20;99.90
16801;DHT22;8518;53.236;10.384;2023-09-19T01:54:11;16.20;99.90
16801;DHT22;8518;53.236;10.384;2023-09-19T02:00:10;16.30;99.90
16801;DHT22;8518;53.236;10.384;2023-09-19T02:02:43;16.30;99.90
16801;DHT22;8518;53.236;10.384;2023-09-19T02:05:10;16.30;99.90
16801;DHT22;8518;53.236;10.384;2023-09-19T02:11:05;16.20;99.90
16801;DHT22;8518;53.236;10.384;2023-09-19T02:13:37;16.20;99.90
16801;DHT22;8518;53.236;10.384;2023-09-19T02:16:06;16.20;99.90
16801;DHT22;8518;53.236;10.384;2023-09-19T02:18:35;17.00;99.90
16801;DHT22;8518;53.236;10.384;2023-09-19T02:21:04;16.20;99.90
16801;DHT22;8518;53.236;10.384;2023-09-19T02:23:32;16.10;99.90
16801;DHT22;8518;53.236;10.384;2023-09-19T02:25:59;16.00;99.90
16801;DHT22;8518;53.236;10.384;2023-09-19T02:28:32;16.10;99.90
16801;DHT22;8518;53.236;10.384;2023-09-19T02:30:59;17.00;99.90
16801;DHT22;8518;53.236;10.384;2023-09-19T02:33:28;16.00;99.90
16801;DHT22;8518;53.236;10.384;2023-09-19T02:36:00;16.60;99.90
16801;DHT22;8518;53.236;10.384;2023-09-19T02:38:46;16.00;99.90
16801;DHT22;8518;53.236;10.384;2023-09-19T02:41:11;15.90;99.90
16801;DHT22;8518;53.236;10.384;2023-09-19T02:43:37;15.90;99.90
16801;DHT22;8518;53.236;10.384;2023-09-19T02:46:03;16.00;99.90
16801;DHT22;8518;53.236;10.384;2023-09-19T02:48:28;16.00;99.90
16801;DHT22;8518;53.236;10.384;2023-09-19T02:50:54;16.00;99.90
16801;DHT22;8518;53.236;10.384;2023-09-19T02:53:20;16.80;99.90
16801;DHT22;8518;53.236;10.384;2023-09-19T02:55:52;16.00;99.90
16801;DHT22;8518;53.236;10.384;2023-09-19T02:58:18;16.10;99.90
16801;DHT22;8518;53.236;10.384;2023-09-19T03:00:44;16.60;99.90
16801;DHT22;8518;53.236;10.384;2023-09-19T03:03:17;16.10;99.90
16801;DHT22;8518;53.236;10.384;2023-09-19T03:05:43;16.10;99.90
16801;DHT22;8518;53.236;10.384;2023-09-19T03:08:13;16.00;99.90
16801;DHT22;8518;53.236;10.384;2023-09-19T03:10:48;16.00;99.90
16801;DHT22;8518;53.236;10.384;2023-09-19T03:13:16;16.00;99.90
16801;DHT22;8518;53.236;10.384;2023-09-19T03:15:42;16.20;99.90
16801;DHT22;8518;53.236;10.384;2023-09-19T03:18:12;16.60;99.90
16801;DHT22;8518;53.236;10.384;2023-09-19T03:20:38;16.00;99.90
16801;DHT22;8518;53.236;10.384;2023-09-19T03:23:04;16.00;99.90
16801;DHT22;8518;53.236;10.384;2023-09-19T03:25:34;16.00;99.90
16801;DHT22;8518;53.236;10.384;2023-09-19T03:31:22;16.00;99.90
16801;DHT22;8518;53.236;10.384;2023-09-19T03:33:48;15.90;99.90
16801;DHT22;8518;53.236;10.384;2023-09-19T03:39:36;15.80;99.90
16801;DHT22;8518;53.236;10.384;2023-09-19T03:42:03;15.90;99.90
16801;DHT22;8518;53.236;10.384;2023-09-19T03:44:32;15.80;99.90
16801;DHT22;8518;53.236;10.384;2023-09-19T03:50:23;15.70;99.90
16801;DHT22;8518;53.236;10.384;2023-09-19T03:52:57;15.70;99.90
16801;DHT22;8518;53.236;10.384;2023-09-19T03:55:28;15.60;99.90
16801;DHT22;8518;53.236;10.384;2023-09-19T04:01:20;15.50;99.90
16801;DHT22;8518;53.236;10.384;2023-09-19T04:03:48;15.50;99.90
16801;DHT22;8518;53.236;10.384;2023-09-19T04:09:38;15.30;99.90
16801;DHT22;8518;53.236;10.384;2023-09-19T04:15:26;15.30;99.90
16801;DHT22;8518;53.236;10.384;2023-09-19T04:21:13;15.30;99.90
16801;DHT22;8518;53.236;10.384;2023-09-19T04:23:42;15.30;99.90
16801;DHT22;8518;53.236;10.384;2023-09-19T04:29:30;15.30;99.90
16801;DHT22;8518;53.236;10.384;2023-09-19T04:31:59;15.30;99.90
16801;DHT22;8518;53.236;10.384;2023-09-19T04:34:27;15.20;99.90
16801;DHT22;8518;53.236;10.384;2023-09-19T04:40:20;15.10;99.90
16801;DHT22;8518;53.236;10.384;2023-09-19T04:42:52;15.10;99.90
16801;DHT22;8518;53.236;10.384;2023-09-19T04:45:18;15.50;99.90
16801;DHT22;8518;53.236;10.384;2023-09-19T04:51:07;15.00;99.90
16801;DHT22;8518;53.236;10.384;2023-09-19T04:53:36;15.30;99.90
16801;DHT22;8518;53.236;10.384;2023-09-19T04:56:02;15.00;99.90
16801;DHT22;8518;53.236;10.384;2023-09-19T04:58:33;14.90;99.90
16801;DHT22;8518;53.236;10.384;2023-09-19T05:01:02;14.90;99.90
16801;DHT22;8518;53.236;10.384;2023-09-19T05:03:28;14.90;99.90
16801;DHT22;8518;53.236;10.384;2023-09-19T05:05:57;14.80;99.90
16801;DHT22;8518;53.236;10.384;2023-09-19T05:08:23;14.80;99.90
16801;DHT22;8518;53.236;10.384;2023-09-19T05:10:51;15.30;99.90
16801;DHT22;8518;53.236;10.384;2023-09-19T05:13:17;14.70;99.90
16801;DHT22;8518;53.236;10.384;2023-09-19T05:15:51;14.80;99.90
16801;DHT22;8518;53.236;10.384;2023-09-19T05:18:18;14.80;99.90
16801;DHT22;8518;53.236;10.384;2023-09-19T05:20:44;14.80;99.90
16801;DHT22;8518;53.236;10.384;2023-09-19T05:23:09;14.80;99.90
16801;DHT22;8518;53.236;10.384;2023-09-19T05:25:39;14.70;99.90
16801;DHT22;8518;53.236;10.384;2023-09-19T05:31:27;14.70;99.90
16801;DHT22;8518;53.236;10.384;2023-09-19T05:33:59;16.00;99.90
16801;DHT22;8518;53.236;10.384;2023-09-19T05:39:48;14.60;99.90
16801;DHT22;8518;53.236;10.384;2023-09-19T05:42:19;14.60;99.90
16801;DHT22;8518;53.236;10.384;2023-09-19T05:44:44;14.60;99.90
16801;DHT22;8518;53.236;10.384;2023-09-19T05:50:35;14.60;99.90
16801;DHT22;8518;53.236;10.384;2023-09-19T05:53:08;14.60;99.90
16801;DHT22;8518;53.236;10.384;2023-09-19T05:55:43;14.50;99.90
16801;DHT22;8518;53.236;10.384;2023-09-19T06:01:31;14.60;99.90
16801;DHT22;8518;53.236;10.384;2023-09-19T06:03:58;15.40;99.90
16801;DHT22;8518;53.236;10.384;2023-09-19T06:09:50;14.80;99.90
16801;DHT22;8518;53.236;10.384;2023-09-19T06:15:40;15.00;99.90
16801;DHT22;8518;53.236;10.384;2023-09-19T06:21:28;15.20;99.90
16801;DHT22;8518;53.236;10.384;2023-09-19T06:23:54;15.30;99.90
16801;DHT22;8518;53.236;10.384;2023-09-19T06:29:42;15.60;99.90
16801;DHT22;8518;53.236;10.384;2023-09-19T06:32:08;15.80;99.90
16801;DHT22;8518;53.236;10.384;2023-09-19T06:34:38;15.90;99.90
16801;DHT22;8518;53.236;10.384;2023-09-19T06:40:26;16.10;99.90
16801;DHT22;8518;53.236;10.384;2023-09-19T06:46:15;16.50;99.90
16801;DHT22;8518;53.236;10.384;2023-09-19T06:48:41;16.60;99.90
16801;DHT22;8518;53.236;10.384;2023-09-19T06:51:09;16.30;99.90
16801;DHT22;8518;53.236;10.384;2023-09-19T06:53:36;17.20;99.90
16801;DHT22;8518;53.236;10.384;2023-09-19T06:56:02;16.30;99.90
16801;DHT22;8518;53.236;10.384;2023-09-19T06:58:28;16.40;99.90
16801;DHT22;8518;53.236;10.384;2023-09-19T07:00:57;17.40;99.90
16801;DHT22;8518;53.236;10.384;2023-09-19T07:03:25;17.20;99.90
16801;DHT22;8518;53.236;10.384;2023-09-19T07:05:52;16.70;99.90
16801;DHT22;8518;53.236;10.384;2023-09-19T07:08:23;16.80;99.90
16801;DHT22;8518;53.236;10.384;2023-09-19T07:10:50;16.90;99.90
16801;DHT22;8518;53.236;10.384;2023-09-19T07:13:21;16.90;99.90
16801;DHT22;8518;53.236;10.384;2023-09-19T07:15:46;17.30;99.90
16801;DHT22;8518;53.236;10.384;2023-09-19T07:18:13;16.90;99.90
16801;DHT22;8518;53.236;10.384;2023-09-19T07:20:47;17.00;99.90
16801;DHT22;8518;53.236;10.384;2023-09-19T07:23:25;17.10;99.90
16801;DHT22;8518;53.236;10.384;2023-09-19T07:25:52;18.10;99.90
16801;DHT22;8518;53.236;10.384;2023-09-19T07:28:21;16.70;99.90
16801;DHT22;8518;53.236;10.384;2023-09-19T07:30:48;16.60;99.90
16801;DHT22;8518;53.236;10.384;2023-09-19T07:33:16;17.20;99.90
16801;DHT22;8518;53.236;10.384;2023-09-19T07:35:52;16.50;99.90
16801;DHT22;8518;53.236;10.384;2023-09-19T07:38:17;16.70;99.90
16801;DHT22;8518;53.236;10.384;2023-09-19T07:40:43;16.90;99.90
16801;DHT22;8518;53.236;10.384;2023-09-19T07:43:09;16.70;99.90
16801;DHT22;8518;53.236;10.384;2023-09-19T07:45:34;16.90;99.90
16801;DHT22;8518;53.236;10.384;2023-09-19T07:51:23;17.30;99.90
16801;DHT22;8518;53.236;10.384;2023-09-19T07:57:11;18.40;99.90
16801;DHT22;8518;53.236;10.384;2023-09-19T07:59:37;18.90;99.90
16801;DHT22;8518;53.236;10.384;2023-09-19T08:02:10;19.00;99.90
16801;DHT22;8518;53.236;10.384;2023-09-19T08:04:42;19.00;99.90
16801;DHT22;8518;53.236;10.384;2023-09-19T08:10:31;18.30;99.90
16801;DHT22;8518;53.236;10.384;2023-09-19T08:13:00;18.20;99.90
16801;DHT22;8518;53.236;10.384;2023-09-19T08:15:27;18.20;99.90
16801;DHT22;8518;53.236;10.384;2023-09-19T08:21:15;20.30;99.90
16801;DHT22;8518;53.236;10.384;2023-09-19T08:23:47;20.80;99.90
16801;DHT22;8518;53.236;10.384;2023-09-19T08:29:36;20.20;99.90
16801;DHT22;8518;53.236;10.384;2023-09-19T08:32:02;19.60;99.90
16801;DHT22;8518;53.236;10.384;2023-09-19T08:38:06;19.50;99.90
16801;DHT22;8518;53.236;10.384;2023-09-19T08:40:32;20.10;99.90
16801;DHT22;8518;53.236;10.384;2023-09-19T08:43:01;19.50;99.90
16801;DHT22;8518;53.236;10.384;2023-09-19T08:45:27;19.10;99.90
16801;DHT22;8518;53.236;10.384;2023-09-19T08:54:17;19.00;99.90
16801;DHT22;8518;53.236;10.384;2023-09-19T09:00:14;18.90;99.90
16801;DHT22;8518;53.236;10.384;2023-09-19T09:02:50;19.30;99.90
16801;DHT22;8518;53.236;10.384;2023-09-19T09:05:16;19.40;99.90
16801;DHT22;8518;53.236;10.384;2023-09-19T09:11:10;20.70;99.90
16801;DHT22;8518;53.236;10.384;2023-09-19T09:13:40;21.50;99.90
16801;DHT22;8518;53.236;10.384;2023-09-19T09:16:09;22.10;99.90
16801;DHT22;8518;53.236;10.384;2023-09-19T09:18:35;21.10;99.90
16801;DHT22;8518;53.236;10.384;2023-09-19T09:21:04;21.20;99.90
16801;DHT22;8518;53.236;10.384;2023-09-19T09:23:30;21.30;99.90
16801;DHT22;8518;53.236;10.384;2023-09-19T09:25:58;21.00;99.90
16801;DHT22;8518;53.236;10.384;2023-09-19T09:28:29;21.50;99.90
16801;DHT22;8518;53.236;10.384;2023-09-19T09:30:59;21.50;99.90
16801;DHT22;8518;53.236;10.384;2023-09-19T09:33:28;21.10;99.90
16801;DHT22;8518;53.236;10.384;2023-09-19T09:36:04;20.50;99.90
16801;DHT22;8518;53.236;10.384;2023-09-19T09:38:47;20.20;99.90
16801;DHT22;8518;53.236;10.384;2023-09-19T09:41:16;20.20;99.90
16801;DHT22;8518;53.236;10.384;2023-09-19T09:43:53;20.30;99.90
16801;DHT22;8518;53.236;10.384;2023-09-19T09:49:47;21.30;99.90
16801;DHT22;8518;53.236;10.384;2023-09-19T09:52:19;22.00;99.90
16801;DHT22;8518;53.236;10.384;2023-09-19T09:55:03;21.70;99.90
16801;DHT22;8518;53.236;10.384;2023-09-19T10:00:53;21.60;99.90
16801;DHT22;8518;53.236;10.384;2023-09-19T10:06:45;22.10;99.90
16801;DHT22;8518;53.236;10.384;2023-09-19T10:09:16;21.60;99.90
16801;DHT22;8518;53.236;10.384;2023-09-19T10:11:47;21.40;99.90
16801;DHT22;8518;53.236;10.384;2023-09-19T10:14:25;21.90;99.90
16801;DHT22;8518;53.236;10.384;2023-09-19T10:20:21;22.50;99.90
16801;DHT22;8518;53.236;10.384;2023-09-19T10:23:09;22.70;99.90
16801;DHT22;8518;53.236;10.384;2023-09-19T10:25:46;22.50;99.90
16801;DHT22;8518;53.236;10.384;2023-09-19T10:28:17;22.80;99.90
16801;DHT22;8518;53.236;10.384;2023-09-19T10:30:48;22.70;99.70
16801;DHT22;8518;53.236;10.384;2023-09-19T10:33:16;22.10;99.90
16801;DHT22;8518;53.236;10.384;2023-09-19T10:35:44;21.90;99.90
16801;DHT22;8518;53.236;10.384;2023-09-19T10:38:12;21.60;99.90
16801;DHT22;8518;53.236;10.384;2023-09-19T10:40:39;21.10;99.90
16801;DHT22;8518;53.236;10.384;2023-09-19T10:43:16;20.60;99.90
16801;DHT22;8518;53.236;10.384;2023-09-19T10:45:51;20.40;99.90
16801;DHT22;8518;53.236;10.384;2023-09-19T10:48:20;20.30;99.90
16801;DHT22;8518;53.236;10.384;2023-09-19T10:51:02;20.50;99.90
16801;DHT22;8518;53.236;10.384;2023-09-19T10:53:49;20.90;99.90
16801;DHT22;8518;53.236;10.384;2023-09-19T11:00:04;21.90;99.90
16801;DHT22;8518;53.236;10.384;2023-09-19T11:06:09;22.00;99.90
16801;DHT22;8518;53.236;10.384;2023-09-19T11:08:58;22.20;99.90
16801;DHT22;8518;53.236;10.384;2023-09-19T11:26:40;20.40;99.90
16801;DHT22;8518;53.236;10.384;2023-09-19T11:29:29;20.40;99.90
16801;DHT22;8518;53.236;10.384;2023-09-19T11:31:55;20.80;99.90
16801;DHT22;8518;53.236;10.384;2023-09-19T11:34:54;21.10;99.90
16801;DHT22;8518;53.236;10.384;2023-09-19T11:50:01;20.20;99.90
16801;DHT22;8518;53.236;10.384;2023-09-19T11:52:28;19.90;99.90
16801;DHT22;8518;53.236;10.384;2023-09-19T11:55:01;19.90;99.90
16801;DHT22;8518;53.236;10.384;2023-09-19T12:00:54;20.90;99.90
16801;DHT22;8518;53.236;10.384;2023-09-19T12:03:29;20.70;99.90
16801;DHT22;8518;53.236;10.384;2023-09-19T12:05:58;20.50;99.90
16801;DHT22;8518;53.236;10.384;2023-09-19T12:08:24;20.70;99.90
16801;DHT22;8518;53.236;10.384;2023-09-19T12:10:53;21.00;99.90
16801;DHT22;8518;53.236;10.384;2023-09-19T12:13:20;21.50;99.90
16801;DHT22;8518;53.236;10.384;2023-09-19T12:15:46;22.20;99.90
16801;DHT22;8518;53.236;10.384;2023-09-19T12:18:30;22.40;99.60
16801;DHT22;8518;53.236;10.384;2023-09-19T12:20:56;22.40;99.70
16801;DHT22;8518;53.236;10.384;2023-09-19T12:23:27;22.20;99.40
16801;DHT22;8518;53.236;10.384;2023-09-19T12:25:53;22.30;99.70
16801;DHT22;8518;53.236;10.384;2023-09-19T12:28:27;22.00;99.90
16801;DHT22;8518;53.236;10.384;2023-09-19T12:30:55;22.60;99.30
16801;DHT22;8518;53.236;10.384;2023-09-19T12:33:21;22.90;98.60
16801;DHT22;8518;53.236;10.384;2023-09-19T12:35:53;22.80;97.90
16801;DHT22;8518;53.236;10.384;2023-09-19T12:38:47;22.60;98.40
16801;DHT22;8518;53.236;10.384;2023-09-19T12:41:16;22.10;99.30
16801;DHT22;8518;53.236;10.384;2023-09-19T12:43:45;22.10;99.60
16801;DHT22;8518;53.236;10.384;2023-09-19T12:49:33;22.50;97.50
16801;DHT22;8518;53.236;10.384;2023-09-19T12:55:26;23.60;97.10
16801;DHT22;8518;53.236;10.384;2023-09-19T13:01:15;22.20;97.30
16801;DHT22;8518;53.236;10.384;2023-09-19T13:03:41;21.30;98.90
16801;DHT22;8518;53.236;10.384;2023-09-19T13:06:07;21.30;99.30
16801;DHT22;8518;53.236;10.384;2023-09-19T13:08:37;21.50;99.80
16801;DHT22;8518;53.236;10.384;2023-09-19T13:13:50;22.20;98.90
16801;DHT22;8518;53.236;10.384;2023-09-19T13:19:47;21.60;99.30
16801;DHT22;8518;53.236;10.384;2023-09-19T13:22:45;21.00;99.40
16801;DHT22;8518;53.236;10.384;2023-09-19T13:25:28;20.90;99.80
16801;DHT22;8518;53.236;10.384;2023-09-19T13:31:17;21.10;99.80
16801;DHT22;8518;53.236;10.384;2023-09-19T13:37:07;21.70;98.70
16801;DHT22;8518;53.236;10.384;2023-09-19T13:39:33;21.80;98.60
16801;DHT22;8518;53.236;10.384;2023-09-19T13:42:02;21.60;98.60
16801;DHT22;8518;53.236;10.384;2023-09-19T13:44:28;21.60;99.30
16801;DHT22;8518;53.236;10.384;2023-09-19T13:50:17;21.40;99.50
16801;DHT22;8518;53.236;10.384;2023-09-19T13:52:49;21.40;99.50
16801;DHT22;8518;53.236;10.384;2023-09-19T13:55:19;21.40;99.60
16801;DHT22;8518;53.236;10.384;2023-09-19T14:01:11;21.60;99.20
16801;DHT22;8518;53.236;10.384;2023-09-19T14:03:41;21.80;99.00
16801;DHT22;8518;53.236;10.384;2023-09-19T14:09:33;21.50;98.90
16801;DHT22;8518;53.236;10.384;2023-09-19T14:11:59;21.40;99.90
16801;DHT22;8518;53.236;10.384;2023-09-19T14:14:25;21.70;99.80
16801;DHT22;8518;53.236;10.384;2023-09-19T14:20:13;22.00;98.70
16801;DHT22;8518;53.236;10.384;2023-09-19T14:22:45;21.90;99.00
16801;DHT22;8518;53.236;10.384;2023-09-19T14:25:11;21.40;99.40
16801;DHT22;8518;53.236;10.384;2023-09-19T14:31:07;20.30;99.90
16801;DHT22;8518;53.236;10.384;2023-09-19T14:33:38;20.90;99.90
16801;DHT22;8518;53.236;10.384;2023-09-19T14:36:06;20.80;99.90
16801;DHT22;8518;53.236;10.384;2023-09-19T14:38:37;20.70;99.90
16801;DHT22;8518;53.236;10.384;2023-09-19T14:41:07;20.80;99.90
16801;DHT22;8518;53.236;10.384;2023-09-19T14:43:32;20.70;99.90
16801;DHT22;8518;53.236;10.384;2023-09-19T14:46:08;20.40;99.90
16801;DHT22;8518;53.236;10.384;2023-09-19T14:48:36;20.20;99.90
16801;DHT22;8518;53.236;10.384;2023-09-19T14:51:06;20.00;99.90
16801;DHT22;8518;53.236;10.384;2023-09-19T14:53:34;19.90;99.90
16801;DHT22;8518;53.236;10.384;2023-09-19T14:56:07;19.70;99.90
16801;DHT22;8518;53.236;10.384;2023-09-19T14:58:34;19.60;99.90
16801;DHT22;8518;53.236;10.384;2023-09-19T15:03:36;19.30;99.90
16801;DHT22;8518;53.236;10.384;2023-09-19T15:06:03;19.20;99.90
16801;DHT22;8518;53.236;10.384;2023-09-19T15:08:33;19.20;99.90
16801;DHT22;8518;53.236;10.384;2023-09-19T15:11:03;19.20;99.90
16801;DHT22;8518;53.236;10.384;2023-09-19T15:13:40;19.30;99.90
16801;DHT22;8518;53.236;10.384;2023-09-19T15:16:07;19.40;99.90
16801;DHT22;8518;53.236;10.384;2023-09-19T15:18:37;19.50;99.90
16801;DHT22;8518;53.236;10.384;2023-09-19T15:21:04;19.60;99.90
16801;DHT22;8518;53.236;10.384;2023-09-19T15:23:33;19.70;99.90
16801;DHT22;8518;53.236;10.384;2023-09-19T15:26:13;19.80;99.90
16801;DHT22;8518;53.236;10.384;2023-09-19T15:28:39;19.80;99.90
16801;DHT22;8518;53.236;10.384;2023-09-19T15:31:10;19.70;99.90
16801;DHT22;8518;53.236;10.384;2023-09-19T15:33:39;19.70;99.90
16801;DHT22;8518;53.236;10.384;2023-09-19T15:39:30;19.80;99.90
16801;DHT22;8518;53.236;10.384;2023-09-19T15:42:02;19.80;99.90
16801;DHT22;8518;53.236;10.384;2023-09-19T15:44:28;19.80;99.90
16801;DHT22;8518;53.236;10.384;2023-09-19T15:50:18;19.60;99.90
16801;DHT22;8518;53.236;10.384;2023-09-19T15:52:47;19.60;99.90
16801;DHT22;8518;53.236;10.384;2023-09-19T15:55:18;19.40;99.90
16801;DHT22;8518;53.236;10.384;2023-09-19T16:01:07;19.30;99.90
16801;DHT22;8518;53.236;10.384;2023-09-19T16:03:40;19.10;99.90
16801;DHT22;8518;53.236;10.384;2023-09-19T16:09:28;19.10;99.90
16801;DHT22;8518;53.236;10.384;2023-09-19T16:11:56;19.10;99.90
16801;DHT22;8518;53.236;10.384;2023-09-19T16:14:22;19.10;99.90
16801;DHT22;8518;53.236;10.384;2023-09-19T16:20:11;19.00;99.90
16801;DHT22;8518;53.236;10.384;2023-09-19T16:22:38;19.00;99.90
16801;DHT22;8518;53.236;10.384;2023-09-19T16:25:05;19.00;99.90
16801;DHT22;8518;53.236;10.384;2023-09-19T16:31:00;19.00;99.90
16801;DHT22;8518;53.236;10.384;2023-09-19T16:33:28;18.90;99.90
16801;DHT22;8518;53.236;10.384;2023-09-19T16:35:54;19.60;99.90
16801;DHT22;8518;53.236;10.384;2023-09-19T16:38:20;18.90;99.90
16801;DHT22;8518;53.236;10.384;2023-09-19T16:40:56;19.00;99.90
16801;DHT22;8518;53.236;10.384;2023-09-19T16:43:26;19.00;99.90
16801;DHT22;8518;53.236;10.384;2023-09-19T16:45:55;19.00;99.90
16801;DHT22;8518;53.236;10.384;2023-09-19T16:48:22;18.80;99.90
16801;DHT22;8518;53.236;10.384;2023-09-19T16:50:49;18.90;99.90
16801;DHT22;8518;53.236;10.384;2023-09-19T16:53:16;18.90;99.90
16801;DHT22;8518;53.236;10.384;2023-09-19T16:55:43;18.90;99.90
16801;DHT22;8518;53.236;10.384;2023-09-19T17:01:31;18.90;99.90
16801;DHT22;8518;53.236;10.384;2023-09-19T17:03:58;18.80;99.90
16801;DHT22;8518;53.236;10.384;2023-09-19T17:09:49;18.80;99.90
16801;DHT22;8518;53.236;10.384;2023-09-19T17:12:16;18.80;99.90
16801;DHT22;8518;53.236;10.384;2023-09-19T17:14:44;18.80;99.90
16801;DHT22;8518;53.236;10.384;2023-09-19T17:20:32;18.70;99.90
16801;DHT22;8518;53.236;10.384;2023-09-19T17:22:58;18.70;99.90
16801;DHT22;8518;53.236;10.384;2023-09-19T17:25:24;18.70;99.90
16801;DHT22;8518;53.236;10.384;2023-09-19T17:31:20;18.70;99.90
16801;DHT22;8518;53.236;10.384;2023-09-19T17:33:48;18.70;99.90
16801;DHT22;8518;53.236;10.384;2023-09-19T17:39:36;18.60;99.90
16801;DHT22;8518;53.236;10.384;2023-09-19T17:42:01;18.60;99.90
16801;DHT22;8518;53.236;10.384;2023-09-19T17:44:29;18.60;99.90
16801;DHT22;8518;53.236;10.384;2023-09-19T17:50:22;18.60;99.90
16801;DHT22;8518;53.236;10.384;2023-09-19T17:52:50;18.70;99.90
16801;DHT22;8518;53.236;10.384;2023-09-19T17:55:15;18.70;99.90
16801;DHT22;8518;53.236;10.384;2023-09-19T18:01:23;18.50;99.90
16801;DHT22;8518;53.236;10.384;2023-09-19T18:03:49;18.50;99.90
16801;DHT22;8518;53.236;10.384;2023-09-19T18:09:47;18.40;99.90
16801;DHT22;8518;53.236;10.384;2023-09-19T18:12:12;18.50;99.90
16801;DHT22;8518;53.236;10.384;2023-09-19T18:14:41;18.50;99.90
16801;DHT22;8518;53.236;10.384;2023-09-19T18:20:29;18.80;99.90
16801;DHT22;8518;53.236;10.384;2023-09-19T18:23:00;18.40;99.90
16801;DHT22;8518;53.236;10.384;2023-09-19T18:25:27;18.50;99.90
16801;DHT22;8518;53.236;10.384;2023-09-19T18:31:14;18.50;99.90
16801;DHT22;8518;53.236;10.384;2023-09-19T18:33:42;18.50;99.90
16801;DHT22;8518;53.236;10.384;2023-09-19T18:36:07;18.50;99.90
16801;DHT22;8518;53.236;10.384;2023-09-19T18:38:38;18.40;99.90
16801;DHT22;8518;53.236;10.384;2023-09-19T18:41:12;18.40;99.90
16801;DHT22;8518;53.236;10.384;2023-09-19T18:43:56;18.10;99.90
16801;DHT22;8518;53.236;10.384;2023-09-19T18:49:45;19.30;99.90
16801;DHT22;8518;53.236;10.384;2023-09-19T18:52:13;18.50;99.90
16801;DHT22;8518;53.236;10.384;2023-09-19T18:54:42;18.50;99.90
16801;DHT22;8518;53.236;10.384;2023-09-19T19:00:34;18.50;99.90
16801;DHT22;8518;53.236;10.384;2023-09-19T19:03:02;18.40;99.90
16801;DHT22;8518;53.236;10.384;2023-09-19T19:05:31;18.50;99.90
16801;DHT22;8518;53.236;10.384;2023-09-19T19:11:21;18.50;99.90
16801;DHT22;8518;53.236;10.384;2023-09-19T19:17:11;18.40;99.90
16801;DHT22;8518;53.236;10.384;2023-09-19T19:19:38;18.50;99.90
16801;DHT22;8518;53.236;10.384;2023-09-19T19:22:04;18.40;99.90
16801;DHT22;8518;53.236;10.384;2023-09-19T19:24:31;18.50;99.90
16801;DHT22;8518;53.236;10.384;2023-09-19T19:30:20;18.40;99.90
16801;DHT22;8518;53.236;10.384;2023-09-19T19:32:46;18.60;99.90
16801;DHT22;8518;53.236;10.384;2023-09-19T19:35:18;18.40;99.90
16801;DHT22;8518;53.236;10.384;2023-09-19T19:41:20;18.50;99.90
16801;DHT22;8518;53.236;10.384;2023-09-19T19:43:46;18.40;99.90
16801;DHT22;8518;53.236;10.384;2023-09-19T19:49:42;18.40;99.90
16801;DHT22;8518;53.236;10.384;2023-09-19T19:52:08;18.40;99.90
16801;DHT22;8518;53.236;10.384;2023-09-19T19:54:34;18.40;99.90
16801;DHT22;8518;53.236;10.384;2023-09-19T20:00:22;18.50;99.90
16801;DHT22;8518;53.236;10.384;2023-09-19T20:02:51;18.50;99.90
16801;DHT22;8518;53.236;10.384;2023-09-19T20:05:17;18.50;99.90
16801;DHT22;8518;53.236;10.384;2023-09-19T20:11:06;18.40;99.90
16801;DHT22;8518;53.236;10.384;2023-09-19T20:16:56;18.40;99.90
16801;DHT22;8518;53.236;10.384;2023-09-19T20:19:22;18.40;99.90
16801;DHT22;8518;53.236;10.384;2023-09-19T20:21:48;18.40;99.90
16801;DHT22;8518;53.236;10.384;2023-09-19T20:24:14;18.40;99.90
16801;DHT22;8518;53.236;10.384;2023-09-19T20:30:11;18.40;99.90
16801;DHT22;8518;53.236;10.384;2023-09-19T20:32:41;18.40;99.90
16801;DHT22;8518;53.236;10.384;2023-09-19T20:35:07;18.40;99.90
16801;DHT22;8518;53.236;10.384;2023-09-19T20:40:55;18.40;99.90
16801;DHT22;8518;53.236;10.384;2023-09-19T20:43:21;18.40;99.90
16801;DHT22;8518;53.236;10.384;2023-09-19T20:45:46;18.40;99.90
16801;DHT22;8518;53.236;10.384;2023-09-19T20:48:20;18.40;99.90
16801;DHT22;8518;53.236;10.384;2023-09-19T20:50:46;18.30;99.90
16801;DHT22;8518;53.236;10.384;2023-09-19T20:53:14;18.30;99.90
16801;DHT22;8518;53.236;10.384;2023-09-19T20:55:40;18.30;99.90
16801;DHT22;8518;53.236;10.384;2023-09-19T21:01:27;18.20;99.90
16801;DHT22;8518;53.236;10.384;2023-09-19T21:07:17;18.20;99.90
16801;DHT22;8518;53.236;10.384;2023-09-19T21:09:45;18.20;99.90
16801;DHT22;8518;53.236;10.384;2023-09-19T21:12:14;18.30;99.90
16801;DHT22;8518;53.236;10.384;2023-09-19T21:14:42;18.30;99.90
16801;DHT22;8518;53.236;10.384;2023-09-19T21:20:34;18.30;99.90